TimePDT,TemperatureF,Dew PointF,Humidity,Sea Level PressureIn,VisibilityMPH,Wind Direction,Wind SpeedMPH,Gust SpeedMPH,PrecipitationIn,Events,Conditions,WindDirDegrees,DateUTC
12:53 AM,63.0,55.0,75,30.07,10.0,Calm,Calm,-,N/A,,Overcast,0,2013-04-05 07:53:00
1:53 AM,63.0,54.0,72,30.07,10.0,Calm,Calm,-,N/A,,Overcast,0,2013-04-05 08:53:00
2:53 AM,62.1,55.0,78,30.06,10.0,SSW,3.5,-,N/A,,Overcast,210,2013-04-05 09:53:00
3:53 AM,62.1,54.0,75,30.05,10.0,Variable,5.8,-,N/A,,Overcast,0,2013-04-05 10:53:00
4:24 AM,62.6,53.6,72,30.05,10.0,Calm,Calm,-,N/A,,Overcast,0,2013-04-05 11:24:00
4:53 AM,62.1,54.0,75,30.05,10.0,West,3.5,-,N/A,,Overcast,270,2013-04-05 11:53:00
5:51 AM,60.8,55.4,82,30.05,7.0,Calm,Calm,-,N/A,,Overcast,0,2013-04-05 12:51:00
5:53 AM,61.0,55.0,81,30.05,8.0,SW,4.6,-,N/A,,Overcast,220,2013-04-05 12:53:00
6:13 AM,60.8,55.4,82,30.06,7.0,Calm,Calm,-,N/A,,Overcast,0,2013-04-05 13:13:00
6:53 AM,61.0,55.0,81,30.06,8.0,Calm,Calm,-,N/A,,Overcast,0,2013-04-05 13:53:00
7:07 AM,60.8,55.4,82,30.07,5.0,Calm,Calm,-,N/A,,Haze,0,2013-04-05 14:07:00
7:53 AM,62.1,55.0,78,30.07,10.0,SSW,3.5,-,N/A,,Overcast,200,2013-04-05 14:53:00
8:53 AM,63.0,54.0,72,30.08,8.0,Calm,Calm,-,N/A,,Overcast,0,2013-04-05 15:53:00
9:30 AM,64.4,53.6,68,30.08,10.0,SSW,5.8,-,N/A,,Overcast,210,2013-04-05 16:30:00
9:53 AM,64.0,54.0,70,30.08,10.0,Variable,3.5,-,N/A,,Overcast,0,2013-04-05 16:53:00
10:53 AM,66.9,54.0,63,30.08,9.0,South,5.8,-,N/A,,Mostly Cloudy,180,2013-04-05 17:53:00
11:53 AM,68.0,54.0,61,30.07,10.0,SSW,4.6,-,N/A,,Mostly Cloudy,200,2013-04-05 18:53:00
12:53 PM,72.0,54.0,53,30.06,9.0,Variable,4.6,-,N/A,,Overcast,0,2013-04-05 19:53:00
1:20 PM,71.6,53.6,53,30.05,10.0,South,8.1,-,N/A,,Scattered Clouds,180,2013-04-05 20:20:00
1:53 PM,71.1,53.1,53,30.04,10.0,SSW,6.9,-,N/A,,Partly Cloudy,210,2013-04-05 20:53:00
2:53 PM,73.0,54.0,51,30.02,10.0,SSW,10.4,-,N/A,,Clear,210,2013-04-05 21:53:00
3:53 PM,70.0,54.0,57,30.02,10.0,SSW,10.4,16.1,N/A,,Clear,200,2013-04-05 22:53:00
4:53 PM,69.1,54.0,58,30.01,10.0,SSW,5.8,-,N/A,,Clear,200,2013-04-05 23:53:00
5:53 PM,66.9,54.0,63,29.99,10.0,SSW,6.9,-,N/A,,Clear,210,2013-04-06 00:53:00
6:53 PM,64.0,54.0,70,30.00,10.0,SSW,8.1,-,N/A,,Clear,210,2013-04-06 01:53:00
7:53 PM,63.0,53.1,70,30.01,10.0,SSW,4.6,-,N/A,,Clear,200,2013-04-06 02:53:00
8:53 PM,62.1,53.1,72,30.02,10.0,South,4.6,-,N/A,,Clear,180,2013-04-06 03:53:00
9:53 PM,62.1,53.1,72,30.04,10.0,SSW,3.5,-,N/A,,Clear,200,2013-04-06 04:53:00
10:50 PM,62.6,53.6,72,30.05,10.0,South,3.5,-,N/A,,Mostly Cloudy,170,2013-04-06 05:50:00
10:53 PM,62.1,54.0,75,30.05,10.0,South,3.5,-,N/A,,Mostly Cloudy,170,2013-04-06 05:53:00
11:53 PM,61.0,53.1,75,30.05,10.0,Variable,3.5,-,N/A,,Overcast,0,2013-04-06 06:53:00